Station Historical Data
Daily Summary for December 26, 2011 Units:  Both    English   Metric
« Previous Day
Next Day »
Daily Weekly Monthly Yearly Custom
  High: Low: Average:
Temperature: 43.0 °F /  6.1 °C 34.6 °F /  1.4 °C 39.3 °F /  4.1 °C
Dew Point: 41.5 °F /  5.3 °C 28.4 °F /  -2 °C 33.7 °F /  0.9 °C
Humidity: 95% 71% 81%
Wind Speed: 22.0mph /  35.4km/h - 4.9mph /  7.9km/h
Wind Gust: 25.0mph /  40.2km/h - -
Wind- - East
Pressure: 30.35 in /  1027.7 hPa 29.85 in /  1010.7 hPa -
Precipitation: 0.95 in /  24.13 mm    
Historical Graphs
 
 
Tabular Data for December 26, 2011
Time Temperature Dew Point Pressure Wind Wind Speed Wind Gust Humidity Rainfall Rate (Hourly) Conditions
00:00 35.3 °F /  1.8 °C 32.4 °F /  0.2 °C 30.35in /  1027.7hPa Calm     89% 0.00in /  0mm
00:05 34.9 °F /  1.6 °C 32.5 °F /  0.3 °C 30.35in /  1027.7hPa Calm     91% 0.00in /  0mm
00:10 35.0 °F /  1.7 °C 32.9 °F /  0.5 °C 30.35in /  1027.7hPa Calm     92% 0.00in /  0mm
00:15 34.6 °F /  1.4 °C 32.0 °F /  0 °C 30.35in /  1027.7hPa Calm     90% 0.00in /  0mm
00:20 34.6 °F /  1.4 °C 32.5 °F /  0.3 °C 30.35in /  1027.7hPa Calm     92% 0.00in /  0mm
00:26 35.1 °F /  1.7 °C 32.7 °F /  0.4 °C 30.35in /  1027.7hPa Calm     91% 0.00in /  0mm
00:31 35.9 °F /  2.2 °C 33.0 °F /  0.6 °C 30.35in /  1027.7hPa Calm   1.0mph /  1.6km/h 89% 0.00in /  0mm
00:36 35.6 °F /  2 °C 32.4 °F /  0.2 °C 30.34in /  1027.3hPa North 1.0mph /  1.6km/h 1.0mph /  1.6km/h 88% 0.00in /  0mm
00:41 34.9 °F /  1.6 °C 32.0 °F /  0 °C 30.34in /  1027.3hPa North 1.0mph /  1.6km/h 1.0mph /  1.6km/h 89% 0.00in /  0mm
00:46 35.1 °F /  1.7 °C 32.5 °F /  0.3 °C 30.34in /  1027.3hPa Calm   1.0mph /  1.6km/h 90% 0.00in /  0mm
00:51 35.2 °F /  1.8 °C 32.0 °F /  0 °C 30.34in /  1027.3hPa NNE 1.0mph /  1.6km/h 2.0mph /  3.2km/h 88% 0.00in /  0mm
00:56 35.4 °F /  1.9 °C 31.9 °F /  -0.1 °C 30.34in /  1027.3hPa Calm   1.0mph /  1.6km/h 87% 0.00in /  0mm
01:01 35.3 °F /  1.8 °C 31.5 °F /  -0.3 °C 30.34in /  1027.3hPa Calm   1.0mph /  1.6km/h 86% 0.00in /  0mm
01:06 36.0 °F /  2.2 °C 31.9 °F /  -0.1 °C 30.34in /  1027.3hPa NNE 1.0mph /  1.6km/h 1.0mph /  1.6km/h 85% 0.00in /  0mm
01:11 37.2 °F /  2.9 °C 32.2 °F /  0.1 °C 30.34in /  1027.3hPa NNE 1.0mph /  1.6km/h 2.0mph /  3.2km/h 82% 0.00in /  0mm
01:16 37.8 °F /  3.2 °C 32.2 °F /  0.1 °C 30.34in /  1027.3hPa NNE 1.0mph /  1.6km/h 2.0mph /  3.2km/h 80% 0.00in /  0mm
01:21 38.2 °F /  3.4 °C 32.0 °F /  0 °C 30.34in /  1027.3hPa Calm   1.0mph /  1.6km/h 78% 0.00in /  0mm
01:26 37.8 °F /  3.2 °C 31.9 °F /  -0.1 °C 30.34in /  1027.3hPa Calm     79% 0.00in /  0mm
01:31 37.0 °F /  2.8 °C 31.1 °F /  -0.5 °C 30.34in /  1027.3hPa NNE 1.0mph /  1.6km/h 1.0mph /  1.6km/h 79% 0.00in /  0mm
01:36 35.4 °F /  1.9 °C 31.1 °F /  -0.5 °C 30.34in /  1027.3hPa Calm   1.0mph /  1.6km/h 84% 0.00in /  0mm
01:41 34.8 °F /  1.6 °C 31.3 °F /  -0.4 °C 30.34in /  1027.3hPa Calm     87% 0.00in /  0mm
01:46 34.6 °F /  1.4 °C 31.4 °F /  -0.3 °C 30.34in /  1027.3hPa NNE 1.0mph /  1.6km/h 1.0mph /  1.6km/h 88% 0.00in /  0mm
01:51 35.2 °F /  1.8 °C 31.4 °F /  -0.3 °C 30.34in /  1027.3hPa NNE 1.0mph /  1.6km/h 1.0mph /  1.6km/h 86% 0.00in /  0mm
01:56 34.9 °F /  1.6 °C 31.4 °F /  -0.3 °C 30.34in /  1027.3hPa NNE 2.0mph /  3.2km/h 2.0mph /  3.2km/h 87% 0.00in /  0mm
02:01 34.9 °F /  1.6 °C 31.4 °F /  -0.3 °C 30.34in /  1027.3hPa Calm   1.0mph /  1.6km/h 87% 0.00in /  0mm
02:06 34.8 °F /  1.6 °C 31.0 °F /  -0.6 °C 30.34in /  1027.3hPa NNE 1.0mph /  1.6km/h 1.0mph /  1.6km/h 86% 0.00in /  0mm
02:11 35.3 °F /  1.8 °C 31.0 °F /  -0.6 °C 30.33in /  1027hPa North 2.0mph /  3.2km/h 2.0mph /  3.2km/h 84% 0.00in /  0mm
02:16 35.7 °F /  2.1 °C 30.8 °F /  -0.7 °C 30.33in /  1027hPa North 1.0mph /  1.6km/h 3.0mph /  4.8km/h 82% 0.00in /  0mm
02:21 36.0 °F /  2.2 °C 30.4 °F /  -0.9 °C 30.34in /  1027.3hPa North 3.0mph /  4.8km/h 3.0mph /  4.8km/h 80% 0.00in /  0mm
02:26 36.5 °F /  2.5 °C 30.3 °F /  -0.9 °C 30.33in /  1027hPa NNE 2.0mph /  3.2km/h 3.0mph /  4.8km/h 78% 0.00in /  0mm
02:31 36.7 °F /  2.6 °C 30.2 °F /  -1 °C 30.33in /  1027hPa North 2.0mph /  3.2km/h 3.0mph /  4.8km/h 77% 0.00in /  0mm
02:36 37.0 °F /  2.8 °C 30.1 °F /  -1.1 °C 30.33in /  1027hPa North 2.0mph /  3.2km/h 3.0mph /  4.8km/h 76% 0.00in /  0mm
02:41 37.3 °F /  2.9 °C 29.8 °F /  -1.2 °C 30.33in /  1027hPa North 2.0mph /  3.2km/h 3.0mph /  4.8km/h 74% 0.00in /  0mm
02:46 37.3 °F /  2.9 °C 29.8 °F /  -1.2 °C 30.33in /  1027hPa NNE 2.0mph /  3.2km/h 3.0mph /  4.8km/h 74% 0.00in /  0mm
02:51 37.5 °F /  3.1 °C 29.6 °F /  -1.3 °C 30.33in /  1027hPa North 3.0mph /  4.8km/h 3.0mph /  4.8km/h 73% 0.00in /  0mm
02:56 37.5 °F /  3.1 °C 29.3 °F /  -1.5 °C 30.33in /  1027hPa North 3.0mph /  4.8km/h 4.0mph /  6.4km/h 72% 0.00in /  0mm
03:01 37.6 °F /  3.1 °C 29.4 °F /  -1.4 °C 30.34in /  1027.3hPa NNE 2.0mph /  3.2km/h 3.0mph /  4.8km/h 72% 0.00in /  0mm
03:06 37.6 °F /  3.1 °C 29.4 °F /  -1.4 °C 30.33in /  1027hPa North 3.0mph /  4.8km/h 4.0mph /  6.4km/h 72% 0.00in /  0mm
03:11 37.4 °F /  3 °C 29.2 °F /  -1.6 °C 30.34in /  1027.3hPa North 2.0mph /  3.2km/h 3.0mph /  4.8km/h 72% 0.00in /  0mm
03:16 37.2 °F /  2.9 °C 29.0 °F /  -1.7 °C 30.34in /  1027.3hPa North 2.0mph /  3.2km/h 3.0mph /  4.8km/h 72% 0.00in /  0mm
03:21 37.2 °F /  2.9 °C 29.0 °F /  -1.7 °C 30.34in /  1027.3hPa NNE 2.0mph /  3.2km/h 3.0mph /  4.8km/h 72% 0.00in /  0mm
03:26 37.3 °F /  2.9 °C 29.1 °F /  -1.6 °C 30.34in /  1027.3hPa North 3.0mph /  4.8km/h 4.0mph /  6.4km/h 72% 0.00in /  0mm
03:31 37.3 °F /  2.9 °C 29.1 °F /  -1.6 °C 30.34in /  1027.3hPa NNE 2.0mph /  3.2km/h 3.0mph /  4.8km/h 72% 0.00in /  0mm
03:36 37.4 °F /  3 °C 28.9 °F /  -1.7 °C 30.34in /  1027.3hPa NNE 3.0mph /  4.8km/h 4.0mph /  6.4km/h 71% 0.00in /  0mm
03:42 37.5 °F /  3.1 °C 29.0 °F /  -1.7 °C 30.33in /  1027hPa NNE 4.0mph /  6.4km/h 4.0mph /  6.4km/h 71% 0.00in /  0mm
03:47 37.5 °F /  3.1 °C 29.0 °F /  -1.7 °C 30.33in /  1027hPa NNE 2.0mph /  3.2km/h 4.0mph /  6.4km/h 71% 0.00in /  0mm
03:52 37.3 °F /  2.9 °C 28.8 °F /  -1.8 °C 30.33in /  1027hPa NNE 2.0mph /  3.2km/h 4.0mph /  6.4km/h 71% 0.00in /  0mm
03:57 37.1 °F /  2.8 °C 28.6 °F /  -1.9 °C 30.33in /  1027hPa NNE 4.0mph /  6.4km/h 5.0mph /  8km/h 71% 0.00in /  0mm
04:02 36.9 °F /  2.7 °C 28.4 °F /  -2 °C 30.33in /  1027hPa NNE 2.0mph /  3.2km/h 6.0mph /  9.7km/h 71% 0.00in /  0mm
04:07 36.9 °F /  2.7 °C 28.7 °F /  -1.8 °C 30.33in /  1027hPa NNE 3.0mph /  4.8km/h 5.0mph /  8km/h 72% 0.00in /  0mm
04:12 36.9 °F /  2.7 °C 28.7 °F /  -1.8 °C 30.32in /  1026.6hPa NNE 5.0mph /  8km/h 6.0mph /  9.7km/h 72% 0.00in /  0mm
04:17 36.8 °F /  2.7 °C 28.6 °F /  -1.9 °C 30.32in /  1026.6hPa NNE 4.0mph /  6.4km/h 6.0mph /  9.7km/h 72% 0.00in /  0mm
04:22 36.8 °F /  2.7 °C 28.6 °F /  -1.9 °C 30.32in /  1026.6hPa NNE 2.0mph /  3.2km/h 7.0mph /  11.3km/h 72% 0.00in /  0mm
04:27 36.7 °F /  2.6 °C 28.5 °F /  -1.9 °C 30.32in /  1026.6hPa NE 3.0mph /  4.8km/h 4.0mph /  6.4km/h 72% 0.00in /  0mm
04:32 36.7 °F /  2.6 °C 28.5 °F /  -1.9 °C 30.31in /  1026.3hPa NNE 4.0mph /  6.4km/h 5.0mph /  8km/h 72% 0.00in /  0mm
04:37 36.7 °F /  2.6 °C 28.5 °F /  -1.9 °C 30.32in /  1026.6hPa NNE 3.0mph /  4.8km/h 7.0mph /  11.3km/h 72% 0.00in /  0mm
04:42 36.9 °F /  2.7 °C 28.7 °F /  -1.8 °C 30.32in /  1026.6hPa North 3.0mph /  4.8km/h 8.0mph /  12.9km/h 72% 0.00in /  0mm
04:47 37.1 °F /  2.8 °C 28.6 °F /  -1.9 °C 30.31in /  1026.3hPa North 4.0mph /  6.4km/h 9.0mph /  14.5km/h 71% 0.00in /  0mm
04:52 37.1 °F /  2.8 °C 28.9 °F /  -1.7 °C 30.31in /  1026.3hPa North 5.0mph /  8km/h 9.0mph /  14.5km/h 72% 0.00in /  0mm
04:57 37.0 °F /  2.8 °C 28.8 °F /  -1.8 °C 30.31in /  1026.3hPa NNE 7.0mph /  11.3km/h 9.0mph /  14.5km/h 72% 0.00in /  0mm
05:02 37.1 °F /  2.8 °C 29.3 °F /  -1.5 °C 30.31in /  1026.3hPa NNE 8.0mph /  12.9km/h 8.0mph /  12.9km/h 73% 0.00in /  0mm
05:07 37.2 °F /  2.9 °C 29.4 °F /  -1.4 °C 30.31in /  1026.3hPa NNE 5.0mph /  8km/h 9.0mph /  14.5km/h 73% 0.00in /  0mm
05:12 37.3 °F /  2.9 °C 29.5 °F /  -1.4 °C 30.32in /  1026.6hPa NE 5.0mph /  8km/h 8.0mph /  12.9km/h 73% 0.00in /  0mm
05:17 37.6 °F /  3.1 °C 29.7 °F /  -1.3 °C 30.31in /  1026.3hPa NNE 8.0mph /  12.9km/h 10.0mph /  16.1km/h 73% 0.00in /  0mm
05:22 37.6 °F /  3.1 °C 30.1 °F /  -1.1 °C 30.31in /  1026.3hPa NE 6.0mph /  9.7km/h 11.0mph /  17.7km/h 74% 0.00in /  0mm
05:27 37.7 °F /  3.2 °C 30.2 °F /  -1 °C 30.31in /  1026.3hPa NE 7.0mph /  11.3km/h 10.0mph /  16.1km/h 74% 0.00in /  0mm
05:32 37.7 °F /  3.2 °C 30.2 °F /  -1 °C 30.31in /  1026.3hPa NNE 5.0mph /  8km/h 11.0mph /  17.7km/h 74% 0.00in /  0mm
05:37 37.7 °F /  3.2 °C 30.2 °F /  -1 °C 30.31in /  1026.3hPa NE 9.0mph /  14.5km/h 12.0mph /  19.3km/h 74% 0.00in /  0mm
05:42 37.7 °F /  3.2 °C 30.2 °F /  -1 °C 30.31in /  1026.3hPa NE 6.0mph /  9.7km/h 9.0mph /  14.5km/h 74% 0.00in /  0mm
05:47 37.7 °F /  3.2 °C 30.2 °F /  -1 °C 30.32in /  1026.6hPa NE 6.0mph /  9.7km/h 8.0mph /  12.9km/h 74% 0.00in /  0mm
05:52 37.7 °F /  3.2 °C 30.2 °F /  -1 °C 30.31in /  1026.3hPa NE 4.0mph /  6.4km/h 8.0mph /  12.9km/h 74% 0.00in /  0mm
05:57 37.7 °F /  3.2 °C 30.2 °F /  -1 °C 30.31in /  1026.3hPa NE 4.0mph /  6.4km/h 9.0mph /  14.5km/h 74% 0.00in /  0mm
06:02 37.7 °F /  3.2 °C 30.2 °F /  -1 °C 30.32in /  1026.6hPa NNE 6.0mph /  9.7km/h 7.0mph /  11.3km/h 74% 0.00in /  0mm
06:07 37.7 °F /  3.2 °C 30.2 °F /  -1 °C 30.32in /  1026.6hPa NNE 5.0mph /  8km/h 8.0mph /  12.9km/h 74% 0.00in /  0mm
06:12 37.6 °F /  3.1 °C 30.4 °F /  -0.9 °C 30.31in /  1026.3hPa NE 5.0mph /  8km/h 8.0mph /  12.9km/h 75% 0.00in /  0mm
06:17 37.6 °F /  3.1 °C 30.4 °F /  -0.9 °C 30.32in /  1026.6hPa NNE 3.0mph /  4.8km/h 8.0mph /  12.9km/h 75% 0.00in /  0mm
06:22 37.5 °F /  3.1 °C 30.3 °F /  -0.9 °C 30.31in /  1026.3hPa NNE 3.0mph /  4.8km/h 5.0mph /  8km/h 75% 0.00in /  0mm
06:27 37.3 °F /  2.9 °C 30.1 °F /  -1.1 °C 30.31in /  1026.3hPa NE 5.0mph /  8km/h 8.0mph /  12.9km/h 75% 0.00in /  0mm
06:32 37.3 °F /  2.9 °C 30.1 °F /  -1.1 °C 30.32in /  1026.6hPa ENE 4.0mph /  6.4km/h 6.0mph /  9.7km/h 75% 0.00in /  0mm
06:37 37.4 °F /  3 °C 30.2 °F /  -1 °C 30.32in /  1026.6hPa NE 8.0mph /  12.9km/h 8.0mph /  12.9km/h 75% 0.00in /  0mm
06:42 37.4 °F /  3 °C 30.2 °F /  -1 °C 30.31in /  1026.3hPa NNE 6.0mph /  9.7km/h 7.0mph /  11.3km/h 75% 0.00in /  0mm
06:47 37.4 °F /  3 °C 30.2 °F /  -1 °C 30.31in /  1026.3hPa NE 6.0mph /  9.7km/h 8.0mph /  12.9km/h 75% 0.00in /  0mm
06:52 37.6 °F /  3.1 °C 30.4 °F /  -0.9 °C 30.31in /  1026.3hPa NE 6.0mph /  9.7km/h 8.0mph /  12.9km/h 75% 0.00in /  0mm
06:57 37.6 °F /  3.1 °C 30.4 °F /  -0.9 °C 30.31in /  1026.3hPa NNE 5.0mph /  8km/h 8.0mph /  12.9km/h 75% 0.00in /  0mm
07:02 37.5 °F /  3.1 °C 30.3 °F /  -0.9 °C 30.31in /  1026.3hPa NNE 4.0mph /  6.4km/h 8.0mph /  12.9km/h 75% 0.00in /  0mm
07:07 37.5 °F /  3.1 °C 30.3 °F /  -0.9 °C 30.31in /  1026.3hPa ENE 7.0mph /  11.3km/h 11.0mph /  17.7km/h 75% 0.00in /  0mm
07:12 37.5 °F /  3.1 °C 30.3 °F /  -0.9 °C 30.32in /  1026.6hPa NNE 3.0mph /  4.8km/h 9.0mph /  14.5km/h 75% 0.00in /  0mm
07:17 37.5 °F /  3.1 °C 30.3 °F /  -0.9 °C 30.32in /  1026.6hPa NE 3.0mph /  4.8km/h 6.0mph /  9.7km/h 75% 0.00in /  0mm
07:22 37.6 °F /  3.1 °C 30.4 °F /  -0.9 °C 30.33in /  1027hPa NE 2.0mph /  3.2km/h 7.0mph /  11.3km/h 75% 0.00in /  0mm
07:27 37.4 °F /  3 °C 30.2 °F /  -1 °C 30.32in /  1026.6hPa NE 2.0mph /  3.2km/h 7.0mph /  11.3km/h 75% 0.00in /  0mm
07:32 37.2 °F /  2.9 °C 30.4 °F /  -0.9 °C 30.32in /  1026.6hPa NNE 4.0mph /  6.4km/h 6.0mph /  9.7km/h 76% 0.00in /  0mm
07:37 37.2 °F /  2.9 °C 30.4 °F /  -0.9 °C 30.32in /  1026.6hPa NE 3.0mph /  4.8km/h 7.0mph /  11.3km/h 76% 0.00in /  0mm
07:42 37.1 °F /  2.8 °C 30.2 °F /  -1 °C 30.32in /  1026.6hPa NE 2.0mph /  3.2km/h 4.0mph /  6.4km/h 76% 0.00in /  0mm
07:47 37.0 °F /  2.8 °C 30.1 °F /  -1.1 °C 30.32in /  1026.6hPa NE 2.0mph /  3.2km/h 6.0mph /  9.7km/h 76% 0.00in /  0mm
07:52 36.9 °F /  2.7 °C 30.4 °F /  -0.9 °C 30.31in /  1026.3hPa NE 2.0mph /  3.2km/h 6.0mph /  9.7km/h 77% 0.00in /  0mm
07:57 36.8 °F /  2.7 °C 30.3 °F /  -0.9 °C 30.31in /  1026.3hPa NE 4.0mph /  6.4km/h 7.0mph /  11.3km/h 77% 0.00in /  0mm
08:02 36.8 °F /  2.7 °C 30.3 °F /  -0.9 °C 30.31in /  1026.3hPa NE 3.0mph /  4.8km/h 6.0mph /  9.7km/h 77% 0.00in /  0mm
08:07 36.7 °F /  2.6 °C 30.2 °F /  -1 °C 30.31in /  1026.3hPa NE 2.0mph /  3.2km/h 4.0mph /  6.4km/h 77% 0.00in /  0mm
08:13 36.6 °F /  2.6 °C 30.4 °F /  -0.9 °C 30.32in /  1026.6hPa NE 4.0mph /  6.4km/h 4.0mph /  6.4km/h 78% 0.00in /  0mm
08:18 36.6 °F /  2.6 °C 30.4 °F /  -0.9 °C 30.31in /  1026.3hPa NE 3.0mph /  4.8km/h 5.0mph /  8km/h 78% 0.00in /  0mm
08:23 36.5 °F /  2.5 °C 30.3 °F /  -0.9 °C 30.31in /  1026.3hPa NE 3.0mph /  4.8km/h 6.0mph /  9.7km/h 78% 0.00in /  0mm
08:28 36.5 °F /  2.5 °C 30.3 °F /  -0.9 °C 30.31in /  1026.3hPa NE 3.0mph /  4.8km/h 6.0mph /  9.7km/h 78% 0.00in /  0mm
08:33 36.6 °F /  2.6 °C 30.4 °F /  -0.9 °C 30.31in /  1026.3hPa NE 3.0mph /  4.8km/h 6.0mph /  9.7km/h 78% 0.00in /  0mm
08:38 36.6 °F /  2.6 °C 30.4 °F /  -0.9 °C 30.32in /  1026.6hPa East 1.0mph /  1.6km/h 5.0mph /  8km/h 78% 0.00in /  0mm
08:43 36.7 °F /  2.6 °C 30.5 °F /  -0.8 °C 30.32in /  1026.6hPa East 1.0mph /  1.6km/h 2.0mph /  3.2km/h 78% 0.00in /  0mm
08:48 36.7 °F /  2.6 °C 30.5 °F /  -0.8 °C 30.31in /  1026.3hPa NE 2.0mph /  3.2km/h 3.0mph /  4.8km/h 78% 0.00in /  0mm
08:53 36.7 °F /  2.6 °C 30.5 °F /  -0.8 °C 30.31in /  1026.3hPa NNE 5.0mph /  8km/h 5.0mph /  8km/h 78% 0.00in /  0mm
08:58 36.7 °F /  2.6 °C 30.5 °F /  -0.8 °C 30.31in /  1026.3hPa Calm   5.0mph /  8km/h 78% 0.00in /  0mm
09:03 36.7 °F /  2.6 °C 30.5 °F /  -0.8 °C 30.32in /  1026.6hPa NE 1.0mph /  1.6km/h 2.0mph /  3.2km/h 78% 0.00in /  0mm
09:08 36.7 °F /  2.6 °C 30.5 °F /  -0.8 °C 30.32in /  1026.6hPa NE 2.0mph /  3.2km/h 3.0mph /  4.8km/h 78% 0.00in /  0mm
09:13 36.8 °F /  2.7 °C 30.6 °F /  -0.8 °C 30.32in /  1026.6hPa Calm   1.0mph /  1.6km/h 78% 0.00in /  0mm
09:18 36.8 °F /  2.7 °C 30.6 °F /  -0.8 °C 30.33in /  1027hPa NE 1.0mph /  1.6km/h 1.0mph /  1.6km/h 78% 0.00in /  0mm
09:23 36.9 °F /  2.7 °C 31.0 °F /  -0.6 °C 30.32in /  1026.6hPa NE 2.0mph /  3.2km/h 3.0mph /  4.8km/h 79% 0.00in /  0mm
09:28 36.9 °F /  2.7 °C 31.0 °F /  -0.6 °C 30.31in /  1026.3hPa NE 4.0mph /  6.4km/h 6.0mph /  9.7km/h 79% 0.00in /  0mm
09:33 37.1 °F /  2.8 °C 31.5 °F /  -0.3 °C 30.31in /  1026.3hPa NNE 4.0mph /  6.4km/h 5.0mph /  8km/h 80% 0.00in /  0mm
09:38 37.1 °F /  2.8 °C 31.2 °F /  -0.4 °C 30.31in /  1026.3hPa NNE 4.0mph /  6.4km/h 6.0mph /  9.7km/h 79% 0.00in /  0mm
09:43 37.2 °F /  2.9 °C 31.0 °F /  -0.6 °C 30.31in /  1026.3hPa NE 3.0mph /  4.8km/h 7.0mph /  11.3km/h 78% 0.00in /  0mm
09:48 37.3 °F /  2.9 °C 31.1 °F /  -0.5 °C 30.31in /  1026.3hPa ENE 2.0mph /  3.2km/h 6.0mph /  9.7km/h 78% 0.00in /  0mm
09:53 37.4 °F /  3 °C 31.2 °F /  -0.4 °C 30.31in /  1026.3hPa NE 2.0mph /  3.2km/h 4.0mph /  6.4km/h 78% 0.00in /  0mm
09:58 37.5 °F /  3.1 °C 31.3 °F /  -0.4 °C 30.31in /  1026.3hPa NNE 4.0mph /  6.4km/h 5.0mph /  8km/h 78% 0.00in /  0mm
10:03 37.5 °F /  3.1 °C 31.6 °F /  -0.2 °C 30.31in /  1026.3hPa NE 4.0mph /  6.4km/h 5.0mph /  8km/h 79% 0.00in /  0mm
10:08 37.5 °F /  3.1 °C 31.3 °F /  -0.4 °C 30.31in /  1026.3hPa NE 5.0mph /  8km/h 6.0mph /  9.7km/h 78% 0.00in /  0mm
10:13 37.6 °F /  3.1 °C 31.4 °F /  -0.3 °C 30.31in /  1026.3hPa NNE 4.0mph /  6.4km/h 5.0mph /  8km/h 78% 0.00in /  0mm
10:18 37.7 °F /  3.2 °C 31.5 °F /  -0.3 °C 30.31in /  1026.3hPa NE 6.0mph /  9.7km/h 8.0mph /  12.9km/h 78% 0.00in /  0mm
10:23 37.7 °F /  3.2 °C 31.5 °F /  -0.3 °C 30.30in /  1026hPa NE 5.0mph /  8km/h 7.0mph /  11.3km/h 78% 0.00in /  0mm
10:28 37.8 °F /  3.2 °C 31.6 °F /  -0.2 °C 30.29in /  1025.6hPa NE 3.0mph /  4.8km/h 6.0mph /  9.7km/h 78% 0.00in /  0mm
10:33 37.8 °F /  3.2 °C 31.6 °F /  -0.2 °C 30.29in /  1025.6hPa NE 6.0mph /  9.7km/h 8.0mph /  12.9km/h 78% 0.00in /  0mm
10:38 37.9 °F /  3.3 °C 31.7 °F /  -0.2 °C 30.28in /  1025.3hPa NE 8.0mph /  12.9km/h 8.0mph /  12.9km/h 78% 0.00in /  0mm
10:43 38.0 °F /  3.3 °C 31.8 °F /  -0.1 °C 30.29in /  1025.6hPa NE 5.0mph /  8km/h 9.0mph /  14.5km/h 78% 0.00in /  0mm
10:48 38.2 °F /  3.4 °C 31.6 °F /  -0.2 °C 30.29in /  1025.6hPa East 1.0mph /  1.6km/h 8.0mph /  12.9km/h 77% 0.00in /  0mm
10:53 38.3 °F /  3.5 °C 31.7 °F /  -0.2 °C 30.29in /  1025.6hPa NE 4.0mph /  6.4km/h 7.0mph /  11.3km/h 77% 0.00in /  0mm
10:58 38.4 °F /  3.6 °C 31.8 °F /  -0.1 °C 30.29in /  1025.6hPa ENE 2.0mph /  3.2km/h 5.0mph /  8km/h 77% 0.00in /  0mm
11:03 38.5 °F /  3.6 °C 31.6 °F /  -0.2 °C 30.28in /  1025.3hPa NE 1.0mph /  1.6km/h 6.0mph /  9.7km/h 76% 0.00in /  0mm
11:08 38.6 °F /  3.7 °C 31.7 °F /  -0.2 °C 30.28in /  1025.3hPa Calm   4.0mph /  6.4km/h 76% 0.00in /  0mm
11:13 38.7 °F /  3.7 °C 31.8 °F /  -0.1 °C 30.28in /  1025.3hPa ENE 2.0mph /  3.2km/h 6.0mph /  9.7km/h 76% 0.00in /  0mm
11:18 38.8 °F /  3.8 °C 31.9 °F /  -0.1 °C 30.28in /  1025.3hPa ENE 2.0mph /  3.2km/h 5.0mph /  8km/h 76% 0.00in /  0mm
11:23 38.9 °F /  3.8 °C 31.7 °F /  -0.2 °C 30.28in /  1025.3hPa East 2.0mph /  3.2km/h 4.0mph /  6.4km/h 75% 0.00in /  0mm
11:28 39.0 °F /  3.9 °C 32.1 °F /  0.1 °C 30.28in /  1025.3hPa NE 2.0mph /  3.2km/h 6.0mph /  9.7km/h 76% 0.00in /  0mm
11:34 39.1 °F /  3.9 °C 32.2 °F /  0.1 °C 30.27in /  1024.9hPa East 1.0mph /  1.6km/h 3.0mph /  4.8km/h 76% 0.00in /  0mm
11:39 39.3 °F /  4.1 °C 32.4 °F /  0.2 °C 30.28in /  1025.3hPa ESE 2.0mph /  3.2km/h 2.0mph /  3.2km/h 76% 0.00in /  0mm
11:44 39.3 °F /  4.1 °C 32.4 °F /  0.2 °C 30.28in /  1025.3hPa ESE 2.0mph /  3.2km/h 3.0mph /  4.8km/h 76% 0.00in /  0mm
11:49 39.4 °F /  4.1 °C 32.2 °F /  0.1 °C 30.27in /  1024.9hPa East 3.0mph /  4.8km/h 4.0mph /  6.4km/h 75% 0.00in /  0mm
11:54 39.5 °F /  4.2 °C 31.9 °F /  -0.1 °C 30.27in /  1024.9hPa East 2.0mph /  3.2km/h 3.0mph /  4.8km/h 74% 0.00in /  0mm
11:59 39.4 °F /  4.1 °C 32.5 °F /  0.3 °C 30.26in /  1024.6hPa East 1.0mph /  1.6km/h 2.0mph /  3.2km/h 76% 0.00in /  0mm
12:04 39.5 °F /  4.2 °C 31.9 °F /  -0.1 °C 30.26in /  1024.6hPa East 3.0mph /  4.8km/h 3.0mph /  4.8km/h 74% 0.00in /  0mm
12:09 39.6 °F /  4.2 °C 32.0 °F /  0 °C 30.25in /  1024.3hPa SE 1.0mph /  1.6km/h 3.0mph /  4.8km/h 74% 0.00in /  0mm
12:14 39.7 °F /  4.3 °C 32.1 °F /  0.1 °C 30.25in /  1024.3hPa East 2.0mph /  3.2km/h 3.0mph /  4.8km/h 74% 0.00in /  0mm
12:19 39.9 °F /  4.4 °C 32.6 °F /  0.3 °C 30.24in /  1023.9hPa ESE 2.0mph /  3.2km/h 3.0mph /  4.8km/h 75% 0.00in /  0mm
12:24 40.0 °F /  4.4 °C 32.4 °F /  0.2 °C 30.24in /  1023.9hPa ESE 3.0mph /  4.8km/h 5.0mph /  8km/h 74% 0.00in /  0mm
12:29 40.1 °F /  4.5 °C 32.5 °F /  0.3 °C 30.24in /  1023.9hPa SE 4.0mph /  6.4km/h 5.0mph /  8km/h 74% 0.00in /  0mm
12:34 40.2 °F /  4.6 °C 31.9 °F /  -0.1 °C 30.24in /  1023.9hPa SE 4.0mph /  6.4km/h 5.0mph /  8km/h 72% 0.00in /  0mm
12:39 40.3 °F /  4.6 °C 32.7 °F /  0.4 °C 30.24in /  1023.9hPa SE 3.0mph /  4.8km/h 5.0mph /  8km/h 74% 0.00in /  0mm
12:44 40.4 °F /  4.7 °C 32.8 °F /  0.4 °C 30.24in /  1023.9hPa SSE 3.0mph /  4.8km/h 5.0mph /  8km/h 74% 0.00in /  0mm
12:49 40.3 °F /  4.6 °C 32.3 °F /  0.2 °C 30.23in /  1023.6hPa SE 4.0mph /  6.4km/h 5.0mph /  8km/h 73% 0.00in /  0mm
12:54 40.3 °F /  4.6 °C 33.0 °F /  0.6 °C 30.23in /  1023.6hPa SSE 4.0mph /  6.4km/h 4.0mph /  6.4km/h 75% 0.00in /  0mm
12:59 40.3 °F /  4.6 °C 32.7 °F /  0.4 °C 30.23in /  1023.6hPa SSE 3.0mph /  4.8km/h 4.0mph /  6.4km/h 74% 0.00in /  0mm
13:04 40.3 °F /  4.6 °C 32.7 °F /  0.4 °C 30.23in /  1023.6hPa South 4.0mph /  6.4km/h 4.0mph /  6.4km/h 74% 0.00in /  0mm
13:09 40.3 °F /  4.6 °C 32.7 °F /  0.4 °C 30.23in /  1023.6hPa SE 1.0mph /  1.6km/h 4.0mph /  6.4km/h 74% 0.00in /  0mm
13:14 40.4 °F /  4.7 °C 32.8 °F /  0.4 °C 30.23in /  1023.6hPa SSW 3.0mph /  4.8km/h 5.0mph /  8km/h 74% 0.00in /  0mm
13:19 40.4 °F /  4.7 °C 32.8 °F /  0.4 °C 30.23in /  1023.6hPa SSW 2.0mph /  3.2km/h 4.0mph /  6.4km/h 74% 0.00in /  0mm
13:24 40.4 °F /  4.7 °C 32.8 °F /  0.4 °C 30.23in /  1023.6hPa South 2.0mph /  3.2km/h 5.0mph /  8km/h 74% 0.00in /  0mm
13:29 40.5 °F /  4.7 °C 32.5 °F /  0.3 °C 30.22in /  1023.2hPa SSE 3.0mph /  4.8km/h 3.0mph /  4.8km/h 73% 0.00in /  0mm
13:34 40.6 °F /  4.8 °C 33.0 °F /  0.6 °C 30.22in /  1023.2hPa South 2.0mph /  3.2km/h 5.0mph /  8km/h 74% 0.00in /  0mm
13:39 40.6 °F /  4.8 °C 32.6 °F /  0.3 °C 30.21in /  1022.9hPa ESE 2.0mph /  3.2km/h 4.0mph /  6.4km/h 73% 0.00in /  0mm
13:44 40.6 °F /  4.8 °C 32.6 °F /  0.3 °C 30.20in /  1022.6hPa ESE 3.0mph /  4.8km/h 4.0mph /  6.4km/h 73% 0.00in /  0mm
13:49 40.7 °F /  4.8 °C 33.1 °F /  0.6 °C 30.20in /  1022.6hPa SE 2.0mph /  3.2km/h 4.0mph /  6.4km/h 74% 0.00in /  0mm
13:54 40.8 °F /  4.9 °C 32.8 °F /  0.4 °C 30.20in /  1022.6hPa ESE 4.0mph /  6.4km/h 5.0mph /  8km/h 73% 0.00in /  0mm
13:59 40.8 °F /  4.9 °C 32.8 °F /  0.4 °C 30.19in /  1022.2hPa ESE 4.0mph /  6.4km/h 6.0mph /  9.7km/h 73% 0.00in /  0mm
14:04 40.9 °F /  4.9 °C 32.9 °F /  0.5 °C 30.19in /  1022.2hPa ESE 6.0mph /  9.7km/h 6.0mph /  9.7km/h 73% 0.00in /  0mm
14:09 40.9 °F /  4.9 °C 32.9 °F /  0.5 °C 30.19in /  1022.2hPa SE 3.0mph /  4.8km/h 6.0mph /  9.7km/h 73% 0.00in /  0mm
14:14 41.1 °F /  5.1 °C 32.4 °F /  0.2 °C 30.19in /  1022.2hPa SE 5.0mph /  8km/h 8.0mph /  12.9km/h 71% 0.00in /  0mm
14:19 41.0 °F /  5 °C 32.3 °F /  0.2 °C 30.18in /  1021.9hPa SE 6.0mph /  9.7km/h 11.0mph /  17.7km/h 71% 0.00in /  0mm
14:24 41.0 °F /  5 °C 33.0 °F /  0.6 °C 30.18in /  1021.9hPa SE 6.0mph /  9.7km/h 8.0mph /  12.9km/h 73% 0.00in /  0mm
14:29 40.9 °F /  4.9 °C 32.9 °F /  0.5 °C 30.18in /  1021.9hPa SSE 4.0mph /  6.4km/h 12.0mph /  19.3km/h 73% 0.00in /  0mm
14:34 40.9 °F /  4.9 °C 32.9 °F /  0.5 °C 30.18in /  1021.9hPa ESE 6.0mph /  9.7km/h 8.0mph /  12.9km/h 73% 0.00in /  0mm
14:39 40.9 °F /  4.9 °C 33.3 °F /  0.7 °C 30.19in /  1022.2hPa SSE 5.0mph /  8km/h 11.0mph /  17.7km/h 74% 0.00in /  0mm
14:44 40.8 °F /  4.9 °C 33.2 °F /  0.7 °C 30.18in /  1021.9hPa SSE 5.0mph /  8km/h 8.0mph /  12.9km/h 74% 0.00in /  0mm
14:49 40.8 °F /  4.9 °C 33.5 °F /  0.8 °C 30.17in /  1021.6hPa SE 3.0mph /  4.8km/h 7.0mph /  11.3km/h 75% 0.00in /  0mm
14:55 40.8 °F /  4.9 °C 33.8 °F /  1 °C 30.17in /  1021.6hPa ESE 3.0mph /  4.8km/h 6.0mph /  9.7km/h 76% 0.00in /  0mm
15:00 40.8 °F /  4.9 °C 34.2 °F /  1.2 °C 30.17in /  1021.6hPa SE 6.0mph /  9.7km/h 6.0mph /  9.7km/h 77% 0.00in /  0mm
15:05 40.9 °F /  4.9 °C 33.9 °F /  1.1 °C 30.16in /  1021.2hPa SE 6.0mph /  9.7km/h 6.0mph /  9.7km/h 76% 0.00in /  0mm
15:10 41.0 °F /  5 °C 34.0 °F /  1.1 °C 30.16in /  1021.2hPa SE 4.0mph /  6.4km/h 10.0mph /  16.1km/h 76% 0.00in /  0mm
15:15 41.0 °F /  5 °C 34.0 °F /  1.1 °C 30.16in /  1021.2hPa ESE 4.0mph /  6.4km/h 9.0mph /  14.5km/h 76% 0.00in /  0mm
15:20 41.0 °F /  5 °C 34.3 °F /  1.3 °C 30.15in /  1020.9hPa ESE 4.0mph /  6.4km/h 6.0mph /  9.7km/h 77% 0.00in /  0mm
15:25 41.1 °F /  5.1 °C 34.5 °F /  1.4 °C 30.16in /  1021.2hPa SE 7.0mph /  11.3km/h 8.0mph /  12.9km/h 77% 0.00in /  0mm
15:30 41.2 °F /  5.1 °C 34.5 °F /  1.4 °C 30.15in /  1020.9hPa ESE 4.0mph /  6.4km/h 7.0mph /  11.3km/h 77% 0.00in /  0mm
15:35 41.2 °F /  5.1 °C 34.5 °F /  1.4 °C 30.15in /  1020.9hPa SE 3.0mph /  4.8km/h 7.0mph /  11.3km/h 77% 0.00in /  0mm
15:40 41.2 °F /  5.1 °C 34.5 °F /  1.4 °C 30.15in /  1020.9hPa ESE 5.0mph /  8km/h 6.0mph /  9.7km/h 77% 0.00in /  0mm
15:45 41.2 °F /  5.1 °C 34.9 °F /  1.6 °C 30.14in /  1020.5hPa East 4.0mph /  6.4km/h 6.0mph /  9.7km/h 78% 0.00in /  0mm
15:50 41.2 °F /  5.1 °C 34.9 °F /  1.6 °C 30.15in /  1020.9hPa ESE 5.0mph /  8km/h 7.0mph /  11.3km/h 78% 0.00in /  0mm
15:55 41.2 °F /  5.1 °C 35.2 °F /  1.8 °C 30.14in /  1020.5hPa ESE 4.0mph /  6.4km/h 9.0mph /  14.5km/h 79% 0.00in /  0mm
16:00 41.2 °F /  5.1 °C 35.2 °F /  1.8 °C 30.13in /  1020.2hPa ENE 3.0mph /  4.8km/h 7.0mph /  11.3km/h 79% 0.00in /  0mm
16:05 41.1 °F /  5.1 °C 35.1 °F /  1.7 °C 30.13in /  1020.2hPa ESE 5.0mph /  8km/h 8.0mph /  12.9km/h 79% 0.00in /  0mm
16:10 41.0 °F /  5 °C 35.3 °F /  1.8 °C 30.13in /  1020.2hPa ESE 4.0mph /  6.4km/h 8.0mph /  12.9km/h 80% 0.00in /  0mm
16:15 40.8 °F /  4.9 °C 35.7 °F /  2.1 °C 30.13in /  1020.2hPa East 4.0mph /  6.4km/h 9.0mph /  14.5km/h 82% 0.00in /  0mm
16:20 40.6 °F /  4.8 °C 35.8 °F /  2.1 °C 30.13in /  1020.2hPa ESE 2.0mph /  3.2km/h 8.0mph /  12.9km/h 83% 0.00in /  0mm
16:25 40.5 °F /  4.7 °C 36.0 °F /  2.2 °C 30.13in /  1020.2hPa ESE 3.0mph /  4.8km/h 6.0mph /  9.7km/h 84% 0.00in /  0mm
16:30 40.4 °F /  4.7 °C 36.0 °F /  2.2 °C 30.13in /  1020.2hPa ESE 3.0mph /  4.8km/h 5.0mph /  8km/h 84% 0.00in /  0mm
16:35 40.4 °F /  4.7 °C 36.0 °F /  2.2 °C 30.12in /  1019.9hPa ENE 3.0mph /  4.8km/h 7.0mph /  11.3km/h 84% 0.00in /  0mm
16:40 40.3 °F /  4.6 °C 36.2 °F /  2.3 °C 30.12in /  1019.9hPa ENE 3.0mph /  4.8km/h 6.0mph /  9.7km/h 85% 0.00in /  0mm
16:45 40.3 °F /  4.6 °C 36.2 °F /  2.3 °C 30.12in /  1019.9hPa ESE 4.0mph /  6.4km/h 5.0mph /  8km/h 85% 0.00in /  0mm
16:50 40.4 °F /  4.7 °C 36.3 °F /  2.4 °C 30.11in /  1019.5hPa ESE 4.0mph /  6.4km/h 7.0mph /  11.3km/h 85% 0.00in /  0mm
16:55 40.4 °F /  4.7 °C 36.3 °F /  2.4 °C 30.10in /  1019.2hPa ESE 5.0mph /  8km/h 8.0mph /  12.9km/h 85% 0.00in /  0mm
17:00 40.6 °F /  4.8 °C 36.2 °F /  2.3 °C 30.10in /  1019.2hPa East 6.0mph /  9.7km/h 8.0mph /  12.9km/h 84% 0.00in /  0mm
17:05 40.6 °F /  4.8 °C 36.2 °F /  2.3 °C 30.10in /  1019.2hPa East 6.0mph /  9.7km/h 8.0mph /  12.9km/h 84% 0.00in /  0mm
17:10 40.6 °F /  4.8 °C 36.2 °F /  2.3 °C 30.10in /  1019.2hPa ESE 5.0mph /  8km/h 9.0mph /  14.5km/h 84% 0.00in /  0mm
17:15 40.7 °F /  4.8 °C 36.5 °F /  2.5 °C 30.10in /  1019.2hPa ESE 4.0mph /  6.4km/h 9.0mph /  14.5km/h 85% 0.00in /  0mm
17:20 40.6 °F /  4.8 °C 36.2 °F /  2.3 °C 30.10in /  1019.2hPa East 8.0mph /  12.9km/h 9.0mph /  14.5km/h 84% 0.00in /  0mm
17:25 40.6 °F /  4.8 °C 36.5 °F /  2.5 °C 30.08in /  1018.5hPa East 9.0mph /  14.5km/h 9.0mph /  14.5km/h 85% 0.00in /  0mm
17:30 40.5 °F /  4.7 °C 36.3 °F /  2.4 °C 30.08in /  1018.5hPa ENE 10.0mph /  16.1km/h 12.0mph /  19.3km/h 85% 0.00in /  0mm
17:35 40.6 °F /  4.8 °C 36.5 °F /  2.5 °C 30.08in /  1018.5hPa ENE 9.0mph /  14.5km/h 11.0mph /  17.7km/h 85% 0.00in /  0mm
17:40 40.8 °F /  4.9 °C 36.3 °F /  2.4 °C 30.08in /  1018.5hPa East 2.0mph /  3.2km/h 9.0mph /  14.5km/h 84% 0.00in /  0mm
17:46 40.8 °F /  4.9 °C 36.3 °F /  2.4 °C 30.08in /  1018.5hPa East 4.0mph /  6.4km/h 7.0mph /  11.3km/h 84% 0.00in /  0mm
17:51 40.9 °F /  4.9 °C 36.5 °F /  2.5 °C 30.08in /  1018.5hPa East 4.0mph /  6.4km/h 5.0mph /  8km/h 84% 0.00in /  0mm
17:56 41.0 °F /  5 °C 36.5 °F /  2.5 °C 30.07in /  1018.2hPa ESE 4.0mph /  6.4km/h 8.0mph /  12.9km/h 84% 0.00in /  0mm
18:01 41.1 °F /  5.1 °C 36.6 °F /  2.6 °C 30.05in /  1017.5hPa ENE 7.0mph /  11.3km/h 9.0mph /  14.5km/h 84% 0.00in /  0mm
18:06 41.2 °F /  5.1 °C 36.4 °F /  2.4 °C 30.04in /  1017.2hPa East 7.0mph /  11.3km/h 12.0mph /  19.3km/h 83% 0.00in /  0mm
18:11 41.4 °F /  5.2 °C 36.6 °F /  2.6 °C 30.04in /  1017.2hPa ESE 6.0mph /  9.7km/h 7.0mph /  11.3km/h 83% 0.00in /  0mm
18:16 41.5 °F /  5.3 °C 36.4 °F /  2.4 °C 30.04in /  1017.2hPa ESE 9.0mph /  14.5km/h 11.0mph /  17.7km/h 82% 0.00in /  0mm
18:21 41.8 °F /  5.4 °C 36.1 °F /  2.3 °C 30.04in /  1017.2hPa ESE 8.0mph /  12.9km/h 11.0mph /  17.7km/h 80% 0.00in /  0mm
18:26 42.0 °F /  5.6 °C 36.0 °F /  2.2 °C 30.03in /  1016.8hPa ESE 10.0mph /  16.1km/h 12.0mph /  19.3km/h 79% 0.00in /  0mm
18:31 42.3 °F /  5.7 °C 36.3 °F /  2.4 °C 30.02in /  1016.5hPa East 8.0mph /  12.9km/h 13.0mph /  20.9km/h 79% 0.00in /  0mm
18:36 42.4 °F /  5.8 °C 36.0 °F /  2.2 °C 30.02in /  1016.5hPa East 12.0mph /  19.3km/h 15.0mph /  24.1km/h 78% 0.00in /  0mm
18:41 42.6 °F /  5.9 °C 35.6 °F /  2 °C 30.02in /  1016.5hPa ESE 9.0mph /  14.5km/h 13.0mph /  20.9km/h 76% 0.00in /  0mm
18:46 42.6 °F /  5.9 °C 35.9 °F /  2.2 °C 30.02in /  1016.5hPa East 14.0mph /  22.5km/h 14.0mph /  22.5km/h 77% 0.00in /  0mm
18:51 42.7 °F /  5.9 °C 36.0 °F /  2.2 °C 30.02in /  1016.5hPa ESE 8.0mph /  12.9km/h 9.0mph /  14.5km/h 77% 0.00in /  0mm
18:56 42.8 °F /  6 °C 36.1 °F /  2.3 °C 30.03in /  1016.8hPa ESE 6.0mph /  9.7km/h 16.0mph /  25.7km/h 77% 0.00in /  0mm
19:01 42.9 °F /  6.1 °C 36.2 °F /  2.3 °C 30.04in /  1017.2hPa SSE 8.0mph /  12.9km/h 11.0mph /  17.7km/h 77% 0.00in /  0mm
19:06 43.0 °F /  6.1 °C 36.0 °F /  2.2 °C 30.05in /  1017.5hPa SE 7.0mph /  11.3km/h 10.0mph /  16.1km/h 76% 0.00in /  0mm
19:11 43.0 °F /  6.1 °C 36.3 °F /  2.4 °C 30.04in /  1017.2hPa ESE 5.0mph /  8km/h 14.0mph /  22.5km/h 77% 0.00in /  0mm
19:16 42.8 °F /  6 °C 36.8 °F /  2.7 °C 30.05in /  1017.5hPa South 5.0mph /  8km/h 8.0mph /  12.9km/h 79% 0.00in /  0mm
19:21 42.7 °F /  5.9 °C 37.3 °F /  2.9 °C 30.07in /  1018.2hPa SSW 4.0mph /  6.4km/h 7.0mph /  11.3km/h 81% 0.00in /  0mm
19:26 42.4 °F /  5.8 °C 37.9 °F /  3.3 °C 30.08in /  1018.5hPa SSW 4.0mph /  6.4km/h 7.0mph /  11.3km/h 84% 0.05in /  1.27mm
19:31 42.2 °F /  5.7 °C 37.7 °F /  3.2 °C 30.07in /  1018.2hPa SSW 4.0mph /  6.4km/h 5.0mph /  8km/h 84% 0.08in /  2.03mm
19:36 41.9 °F /  5.5 °C 38.0 °F /  3.3 °C 30.07in /  1018.2hPa SSE 4.0mph /  6.4km/h 4.0mph /  6.4km/h 86% 0.10in /  2.54mm
19:41 41.7 °F /  5.4 °C 38.1 °F /  3.4 °C 30.07in /  1018.2hPa South 5.0mph /  8km/h 5.0mph /  8km/h 87% 0.10in /  2.54mm
19:46 41.5 °F /  5.3 °C 38.2 °F /  3.4 °C 30.07in /  1018.2hPa SSE 1.0mph /  1.6km/h 3.0mph /  4.8km/h 88% 0.09in /  2.29mm
19:51 41.4 °F /  5.2 °C 38.4 °F /  3.6 °C 30.06in /  1017.8hPa SE 3.0mph /  4.8km/h 3.0mph /  4.8km/h 89% 0.07in /  1.78mm
19:56 41.3 °F /  5.2 °C 38.3 °F /  3.5 °C 30.06in /  1017.8hPa SSE 4.0mph /  6.4km/h 4.0mph /  6.4km/h 89% 0.15in /  3.81mm
20:01 41.3 °F /  5.2 °C 38.6 °F /  3.7 °C 30.04in /  1017.2hPa ESE 5.0mph /  8km/h 7.0mph /  11.3km/h 90% 0.12in /  3.05mm
20:06 41.2 °F /  5.1 °C 38.5 °F /  3.6 °C 30.04in /  1017.2hPa ESE 6.0mph /  9.7km/h 6.0mph /  9.7km/h 90% 0.12in /  3.05mm
20:11 41.5 °F /  5.3 °C 38.8 °F /  3.8 °C 30.03in /  1016.8hPa East 9.0mph /  14.5km/h 12.0mph /  19.3km/h 90% 0.14in /  3.56mm
20:16 41.8 °F /  5.4 °C 39.1 °F /  3.9 °C 30.03in /  1016.8hPa SE 6.0mph /  9.7km/h 11.0mph /  17.7km/h 90% 0.17in /  4.32mm
20:21 42.0 °F /  5.6 °C 39.3 °F /  4.1 °C 30.01in /  1016.1hPa ESE 9.0mph /  14.5km/h 12.0mph /  19.3km/h 90% 0.14in /  3.56mm
20:26 42.3 °F /  5.7 °C 39.6 °F /  4.2 °C 30.01in /  1016.1hPa ESE 14.0mph /  22.5km/h 18.0mph /  29km/h 90% 0.09in /  2.29mm
20:31 42.5 °F /  5.8 °C 39.5 °F /  4.2 °C 30.00in /  1015.8hPa ESE 11.0mph /  17.7km/h 19.0mph /  30.6km/h 89% 0.11in /  2.79mm
20:36 42.5 °F /  5.8 °C 39.8 °F /  4.3 °C 30.00in /  1015.8hPa ESE 13.0mph /  20.9km/h 21.0mph /  33.8km/h 90% 0.09in /  2.29mm
20:41 42.5 °F /  5.8 °C 40.1 °F /  4.5 °C 30.00in /  1015.8hPa ESE 16.0mph /  25.7km/h 23.0mph /  37km/h 91% 0.13in /  3.3mm
20:46 42.4 °F /  5.8 °C 40.0 °F /  4.4 °C 30.01in /  1016.1hPa ESE 22.0mph /  35.4km/h 25.0mph /  40.2km/h 91% 0.10in /  2.54mm
20:51 42.4 °F /  5.8 °C 40.2 °F /  4.6 °C 30.00in /  1015.8hPa SE 14.0mph /  22.5km/h 22.0mph /  35.4km/h 92% 0.05in /  1.27mm
20:56 42.3 °F /  5.7 °C 40.2 °F /  4.6 °C 29.99in /  1015.5hPa SE 13.0mph /  20.9km/h 21.0mph /  33.8km/h 92% 0.04in /  1.02mm
21:01 42.3 °F /  5.7 °C 40.4 °F /  4.7 °C 30.00in /  1015.8hPa ESE 10.0mph /  16.1km/h 15.0mph /  24.1km/h 93% 0.34in /  8.64mm
21:06 42.1 °F /  5.6 °C 40.2 °F /  4.6 °C 29.99in /  1015.5hPa ESE 9.0mph /  14.5km/h 17.0mph /  27.4km/h 93% 0.29in /  7.37mm
21:11 42.1 °F /  5.6 °C 40.5 °F /  4.7 °C 29.98in /  1015.1hPa ESE 10.0mph /  16.1km/h 16.0mph /  25.7km/h 94% 0.25in /  6.35mm
21:17 42.0 °F /  5.6 °C 40.4 °F /  4.7 °C 29.98in /  1015.1hPa ESE 10.0mph /  16.1km/h 19.0mph /  30.6km/h 94% 0.17in /  4.32mm
21:22 42.1 °F /  5.6 °C 40.5 °F /  4.7 °C 29.99in /  1015.5hPa SE 11.0mph /  17.7km/h 21.0mph /  33.8km/h 94% 0.13in /  3.3mm
21:27 42.2 °F /  5.7 °C 40.6 °F /  4.8 °C 29.99in /  1015.5hPa ESE 16.0mph /  25.7km/h 16.0mph /  25.7km/h 94% 0.07in /  1.78mm
21:32 42.3 °F /  5.7 °C 41.0 °F /  5 °C 30.00in /  1015.8hPa SE 12.0mph /  19.3km/h 16.0mph /  25.7km/h 95% 0.55in /  13.97mm
21:37 42.3 °F /  5.7 °C 41.0 °F /  5 °C 29.99in /  1015.5hPa ESE 10.0mph /  16.1km/h 16.0mph /  25.7km/h 95% 0.43in /  10.92mm
21:42 42.4 °F /  5.8 °C 41.1 °F /  5.1 °C 29.99in /  1015.5hPa SSE 7.0mph /  11.3km/h 17.0mph /  27.4km/h 95% 0.20in /  5.08mm
21:47 42.4 °F /  5.8 °C 41.1 °F /  5.1 °C 30.00in /  1015.8hPa SE 13.0mph /  20.9km/h 18.0mph /  29km/h 95% 0.42in /  10.67mm
21:52 42.5 °F /  5.8 °C 41.2 °F /  5.1 °C 30.00in /  1015.8hPa ESE 11.0mph /  17.7km/h 20.0mph /  32.2km/h 95% 0.31in /  7.87mm
21:57 42.6 °F /  5.9 °C 41.3 °F /  5.2 °C 30.00in /  1015.8hPa SE 10.0mph /  16.1km/h 18.0mph /  29km/h 95% 0.29in /  7.37mm
22:02 42.6 °F /  5.9 °C 41.3 °F /  5.2 °C 29.99in /  1015.5hPa ESE 10.0mph /  16.1km/h 20.0mph /  32.2km/h 95% 0.14in /  3.56mm
22:07 42.7 °F /  5.9 °C 41.4 °F /  5.2 °C 29.99in /  1015.5hPa ESE 8.0mph /  12.9km/h 17.0mph /  27.4km/h 95% 0.39in /  9.91mm
22:12 42.7 °F /  5.9 °C 41.4 °F /  5.2 °C 29.98in /  1015.1hPa ESE 10.0mph /  16.1km/h 15.0mph /  24.1km/h 95% 0.34in /  8.64mm
22:17 42.8 °F /  6 °C 41.5 °F /  5.3 °C 29.97in /  1014.8hPa SE 14.0mph /  22.5km/h 16.0mph /  25.7km/h 95% 0.23in /  5.84mm
22:22 42.7 °F /  5.9 °C 41.1 °F /  5.1 °C 29.97in /  1014.8hPa ESE 18.0mph /  29km/h 19.0mph /  30.6km/h 94% 0.33in /  8.38mm
22:27 42.7 °F /  5.9 °C 41.1 °F /  5.1 °C 29.96in /  1014.4hPa SE 17.0mph /  27.4km/h 17.0mph /  27.4km/h 94% 0.45in /  11.43mm
22:32 42.7 °F /  5.9 °C 41.4 °F /  5.2 °C 29.96in /  1014.4hPa ESE 11.0mph /  17.7km/h 18.0mph /  29km/h 95% 0.37in /  9.4mm
22:37 42.7 °F /  5.9 °C 41.4 °F /  5.2 °C 29.95in /  1014.1hPa SE 11.0mph /  17.7km/h 16.0mph /  25.7km/h 95% 0.28in /  7.11mm
22:42 42.6 °F /  5.9 °C 41.3 °F /  5.2 °C 29.95in /  1014.1hPa ESE 13.0mph /  20.9km/h 18.0mph /  29km/h 95% 0.24in /  6.1mm
22:47 42.6 °F /  5.9 °C 41.3 °F /  5.2 °C 29.94in /  1013.8hPa ESE 16.0mph /  25.7km/h 16.0mph /  25.7km/h 95% 0.33in /  8.38mm
22:52 42.6 °F /  5.9 °C 41.3 °F /  5.2 °C 29.94in /  1013.8hPa SE 12.0mph /  19.3km/h 15.0mph /  24.1km/h 95% 0.23in /  5.84mm
22:57 42.6 °F /  5.9 °C 41.3 °F /  5.2 °C 29.93in /  1013.4hPa SE 6.0mph /  9.7km/h 19.0mph /  30.6km/h 95% 0.42in /  10.67mm
23:02 42.6 °F /  5.9 °C 41.3 °F /  5.2 °C 29.92in /  1013.1hPa ESE 13.0mph /  20.9km/h 17.0mph /  27.4km/h 95% 0.19in /  4.83mm
23:07 42.6 °F /  5.9 °C 41.3 °F /  5.2 °C 29.92in /  1013.1hPa ESE 13.0mph /  20.9km/h 14.0mph /  22.5km/h 95% 0.13in /  3.3mm
23:12 42.5 °F /  5.8 °C 41.2 °F /  5.1 °C 29.92in /  1013.1hPa East 9.0mph /  14.5km/h 15.0mph /  24.1km/h 95% 0.18in /  4.57mm
23:17 42.5 °F /  5.8 °C 41.2 °F /  5.1 °C 29.91in /  1012.8hPa East 7.0mph /  11.3km/h 13.0mph /  20.9km/h 95% 0.20in /  5.08mm
23:22 42.6 °F /  5.9 °C 41.3 °F /  5.2 °C 29.91in /  1012.8hPa East 9.0mph /  14.5km/h 16.0mph /  25.7km/h 95% 0.08in /  2.03mm
23:27 42.6 °F /  5.9 °C 41.3 °F /  5.2 °C 29.91in /  1012.8hPa ESE 9.0mph /  14.5km/h 11.0mph /  17.7km/h 95% 0.05in /  1.27mm
23:32 42.6 °F /  5.9 °C 41.3 °F /  5.2 °C 29.90in /  1012.4hPa ESE 8.0mph /  12.9km/h 18.0mph /  29km/h 95% 0.00in /  0mm
23:37 42.7 °F /  5.9 °C 41.4 °F /  5.2 °C 29.88in /  1011.7hPa East 11.0mph /  17.7km/h 15.0mph /  24.1km/h 95% 0.00in /  0mm
23:42 42.7 °F /  5.9 °C 41.4 °F /  5.2 °C 29.88in /  1011.7hPa ESE 8.0mph /  12.9km/h 14.0mph /  22.5km/h 95% 0.07in /  1.78mm
23:47 42.7 °F /  5.9 °C 41.4 °F /  5.2 °C 29.87in /  1011.4hPa ESE 12.0mph /  19.3km/h 18.0mph /  29km/h 95% 0.24in /  6.1mm
23:53 42.8 °F /  6 °C 41.5 °F /  5.3 °C 29.87in /  1011.4hPa ESE 16.0mph /  25.7km/h 18.0mph /  29km/h 95% 0.35in /  8.89mm
23:58 42.8 °F /  6 °C 41.5 °F /  5.3 °C 29.85in /  1010.7hPa SE 13.0mph /  20.9km/h 17.0mph /  27.4km/h 95% 0.48in /  12.19mm
Compliments of Weather Underground